Talmoon, Minnesota
Current Conditions -  °F | °C
As of 10:53 AM on Sunday 23 Nov 2014 (Local Time) from KFOZ Reporting Station
Haze Haze  
Wind Chill: 36°   Ceiling: 400
Heat Index: 36°   Visibility: 2.5mi
Dew Point: 34°   Wind: 3mph
Humidity: 93%   Direction: 190°S
Pressure: 29.42"   Gusts: NA
Location:  47.6°N, 93.77°W
Report Text: KFOZ 231653Z AUTO 19003KT 2 1/2SM BR OVC004 02/01 A2942 RMK AO2
Loading
Personal Weather Stations






























Interactive Weather Map New forecast layout! Learn more

10-Day Weather Forecast

Advertisements
Track Severe Weather on mobile